sensor_id;sensor_type;location;lat;lon;timestamp;P1;durP1;ratioP1;P2;durP2;ratioP2
3261;SDS011;1643;47.746;9.000;2023-02-01T00:01:42;4.67;;;3.70;;
3261;SDS011;1643;47.746;9.000;2023-02-01T00:04:08;5.70;;;4.07;;
3261;SDS011;1643;47.746;9.000;2023-02-01T00:06:35;5.43;;;3.50;;
3261;SDS011;1643;47.746;9.000;2023-02-01T00:09:01;9.13;;;3.87;;
3261;SDS011;1643;47.746;9.000;2023-02-01T00:11:27;4.00;;;3.50;;
3261;SDS011;1643;47.746;9.000;2023-02-01T00:13:53;3.17;;;2.90;;
3261;SDS011;1643;47.746;9.000;2023-02-01T00:16:20;8.60;;;4.00;;
3261;SDS011;1643;47.746;9.000;2023-02-01T00:18:48;3.83;;;2.80;;
3261;SDS011;1643;47.746;9.000;2023-02-01T00:21:15;5.60;;;3.60;;
3261;SDS011;1643;47.746;9.000;2023-02-01T00:23:41;2.57;;;2.37;;
3261;SDS011;1643;47.746;9.000;2023-02-01T00:26:10;8.20;;;4.20;;
3261;SDS011;1643;47.746;9.000;2023-02-01T00:28:38;3.53;;;2.90;;
3261;SDS011;1643;47.746;9.000;2023-02-01T00:31:04;4.20;;;3.57;;
3261;SDS011;1643;47.746;9.000;2023-02-01T00:33:30;4.00;;;2.70;;
3261;SDS011;1643;47.746;9.000;2023-02-01T00:35:57;5.30;;;3.43;;
3261;SDS011;1643;47.746;9.000;2023-02-01T00:38:24;6.13;;;3.13;;
3261;SDS011;1643;47.746;9.000;2023-02-01T00:40:50;5.07;;;3.60;;
3261;SDS011;1643;47.746;9.000;2023-02-01T00:43:16;6.23;;;3.57;;
3261;SDS011;1643;47.746;9.000;2023-02-01T00:45:42;3.40;;;2.90;;
3261;SDS011;1643;47.746;9.000;2023-02-01T00:48:08;10.47;;;3.97;;
3261;SDS011;1643;47.746;9.000;2023-02-01T00:50:34;3.93;;;3.07;;
3261;SDS011;1643;47.746;9.000;2023-02-01T00:53:00;5.00;;;3.60;;
3261;SDS011;1643;47.746;9.000;2023-02-01T00:55:26;4.80;;;3.00;;
3261;SDS011;1643;47.746;9.000;2023-02-01T00:57:52;4.93;;;3.40;;
3261;SDS011;1643;47.746;9.000;2023-02-01T01:00:18;4.20;;;3.47;;
3261;SDS011;1643;47.746;9.000;2023-02-01T01:02:44;4.13;;;3.30;;
3261;SDS011;1643;47.746;9.000;2023-02-01T01:05:10;3.83;;;3.27;;
3261;SDS011;1643;47.746;9.000;2023-02-01T01:07:36;4.40;;;3.50;;
3261;SDS011;1643;47.746;9.000;2023-02-01T01:10:02;6.07;;;3.47;;
3261;SDS011;1643;47.746;9.000;2023-02-01T01:12:28;5.13;;;3.40;;
3261;SDS011;1643;47.746;9.000;2023-02-01T01:14:54;6.53;;;3.93;;
3261;SDS011;1643;47.746;9.000;2023-02-01T01:17:20;4.77;;;3.77;;
3261;SDS011;1643;47.746;9.000;2023-02-01T01:19:46;9.77;;;4.47;;
3261;SDS011;1643;47.746;9.000;2023-02-01T01:22:12;5.17;;;3.87;;
3261;SDS011;1643;47.746;9.000;2023-02-01T01:24:38;4.40;;;3.57;;
3261;SDS011;1643;47.746;9.000;2023-02-01T01:27:04;5.13;;;3.57;;
3261;SDS011;1643;47.746;9.000;2023-02-01T01:29:30;5.57;;;3.80;;
3261;SDS011;1643;47.746;9.000;2023-02-01T01:31:55;4.87;;;3.63;;
3261;SDS011;1643;47.746;9.000;2023-02-01T01:34:21;5.73;;;4.33;;
3261;SDS011;1643;47.746;9.000;2023-02-01T01:36:47;6.93;;;4.47;;
3261;SDS011;1643;47.746;9.000;2023-02-01T01:39:13;11.73;;;4.20;;
3261;SDS011;1643;47.746;9.000;2023-02-01T01:41:39;5.37;;;3.77;;
3261;SDS011;1643;47.746;9.000;2023-02-01T01:44:06;9.30;;;5.60;;
3261;SDS011;1643;47.746;9.000;2023-02-01T01:46:34;5.33;;;3.80;;
3261;SDS011;1643;47.746;9.000;2023-02-01T01:49:05;5.13;;;3.50;;
3261;SDS011;1643;47.746;9.000;2023-02-01T01:51:35;6.30;;;4.60;;
3261;SDS011;1643;47.746;9.000;2023-02-01T01:54:04;5.73;;;4.00;;
3261;SDS011;1643;47.746;9.000;2023-02-01T01:56:32;6.73;;;4.10;;
3261;SDS011;1643;47.746;9.000;2023-02-01T01:58:59;5.90;;;4.43;;
3261;SDS011;1643;47.746;9.000;2023-02-01T02:01:26;5.57;;;4.50;;
3261;SDS011;1643;47.746;9.000;2023-02-01T02:03:52;8.17;;;4.30;;
3261;SDS011;1643;47.746;9.000;2023-02-01T02:06:21;6.43;;;4.43;;
3261;SDS011;1643;47.746;9.000;2023-02-01T02:08:49;8.20;;;5.40;;
3261;SDS011;1643;47.746;9.000;2023-02-01T02:11:16;7.73;;;4.50;;
3261;SDS011;1643;47.746;9.000;2023-02-01T02:13:43;7.67;;;5.03;;
3261;SDS011;1643;47.746;9.000;2023-02-01T02:16:24;8.73;;;4.43;;
3261;SDS011;1643;47.746;9.000;2023-02-01T02:29:26;6.63;;;4.40;;
3261;SDS011;1643;47.746;9.000;2023-02-01T02:34:38;4.63;;;3.70;;
3261;SDS011;1643;47.746;9.000;2023-02-01T02:48:10;6.13;;;4.80;;
3261;SDS011;1643;47.746;9.000;2023-02-01T02:50:44;5.00;;;4.10;;
3261;SDS011;1643;47.746;9.000;2023-02-01T02:53:48;5.20;;;4.33;;
3261;SDS011;1643;47.746;9.000;2023-02-01T02:56:35;6.63;;;4.67;;
3261;SDS011;1643;47.746;9.000;2023-02-01T02:59:21;7.87;;;4.30;;
3261;SDS011;1643;47.746;9.000;2023-02-01T03:02:07;6.47;;;4.30;;
3261;SDS011;1643;47.746;9.000;2023-02-01T03:04:55;4.60;;;3.63;;
3261;SDS011;1643;47.746;9.000;2023-02-01T03:10:07;4.70;;;3.90;;
3261;SDS011;1643;47.746;9.000;2023-02-01T03:12:34;5.37;;;4.03;;
3261;SDS011;1643;47.746;9.000;2023-02-01T03:15:20;6.33;;;4.17;;
3261;SDS011;1643;47.746;9.000;2023-02-01T03:17:47;4.20;;;3.80;;
3261;SDS011;1643;47.746;9.000;2023-02-01T03:20:14;7.53;;;4.20;;
3261;SDS011;1643;47.746;9.000;2023-02-01T03:22:42;6.80;;;4.63;;
3261;SDS011;1643;47.746;9.000;2023-02-01T03:25:10;9.43;;;5.20;;
3261;SDS011;1643;47.746;9.000;2023-02-01T03:27:42;7.60;;;4.60;;
3261;SDS011;1643;47.746;9.000;2023-02-01T03:30:13;7.97;;;5.50;;
3261;SDS011;1643;47.746;9.000;2023-02-01T03:32:43;9.17;;;5.07;;
3261;SDS011;1643;47.746;9.000;2023-02-01T03:35:37;5.37;;;4.33;;
3261;SDS011;1643;47.746;9.000;2023-02-01T03:40:34;5.77;;;4.00;;
3261;SDS011;1643;47.746;9.000;2023-02-01T03:43:02;6.87;;;4.80;;
3261;SDS011;1643;47.746;9.000;2023-02-01T03:45:34;7.53;;;4.60;;
3261;SDS011;1643;47.746;9.000;2023-02-01T03:48:01;6.30;;;4.80;;
3261;SDS011;1643;47.746;9.000;2023-02-01T03:50:28;6.83;;;4.27;;
3261;SDS011;1643;47.746;9.000;2023-02-01T03:53:01;7.33;;;5.67;;
3261;SDS011;1643;47.746;9.000;2023-02-01T03:55:27;6.07;;;4.20;;
3261;SDS011;1643;47.746;9.000;2023-02-01T03:57:58;9.83;;;5.00;;
3261;SDS011;1643;47.746;9.000;2023-02-01T04:00:27;6.20;;;4.03;;
3261;SDS011;1643;47.746;9.000;2023-02-01T04:02:53;8.83;;;5.13;;
3261;SDS011;1643;47.746;9.000;2023-02-01T04:05:19;7.73;;;4.30;;
3261;SDS011;1643;47.746;9.000;2023-02-01T04:07:45;10.73;;;5.40;;
3261;SDS011;1643;47.746;9.000;2023-02-01T04:10:11;9.17;;;5.27;;
3261;SDS011;1643;47.746;9.000;2023-02-01T04:12:37;9.53;;;6.03;;
3261;SDS011;1643;47.746;9.000;2023-02-01T04:15:04;9.87;;;6.13;;
3261;SDS011;1643;47.746;9.000;2023-02-01T04:17:30;6.53;;;5.10;;
3261;SDS011;1643;47.746;9.000;2023-02-01T04:19:56;9.43;;;5.30;;
3261;SDS011;1643;47.746;9.000;2023-02-01T04:22:22;7.67;;;4.87;;
3261;SDS011;1643;47.746;9.000;2023-02-01T04:24:48;7.43;;;5.00;;
3261;SDS011;1643;47.746;9.000;2023-02-01T04:27:14;10.73;;;5.90;;
3261;SDS011;1643;47.746;9.000;2023-02-01T04:29:41;9.00;;;5.87;;
3261;SDS011;1643;47.746;9.000;2023-02-01T04:32:07;8.17;;;5.33;;
3261;SDS011;1643;47.746;9.000;2023-02-01T04:34:33;8.37;;;4.70;;
3261;SDS011;1643;47.746;9.000;2023-02-01T04:36:59;7.27;;;5.30;;
3261;SDS011;1643;47.746;9.000;2023-02-01T04:39:26;6.73;;;4.10;;
3261;SDS011;1643;47.746;9.000;2023-02-01T04:41:52;9.70;;;5.50;;
3261;SDS011;1643;47.746;9.000;2023-02-01T04:44:18;8.73;;;4.93;;
3261;SDS011;1643;47.746;9.000;2023-02-01T04:46:45;8.60;;;5.73;;
3261;SDS011;1643;47.746;9.000;2023-02-01T04:49:11;8.37;;;5.50;;
3261;SDS011;1643;47.746;9.000;2023-02-01T04:51:37;7.30;;;4.70;;
3261;SDS011;1643;47.746;9.000;2023-02-01T04:54:04;11.27;;;5.10;;
3261;SDS011;1643;47.746;9.000;2023-02-01T04:56:30;6.87;;;5.23;;
3261;SDS011;1643;47.746;9.000;2023-02-01T04:58:56;7.60;;;5.50;;
3261;SDS011;1643;47.746;9.000;2023-02-01T05:01:22;12.00;;;5.63;;
3261;SDS011;1643;47.746;9.000;2023-02-01T05:03:49;6.40;;;5.50;;
3261;SDS011;1643;47.746;9.000;2023-02-01T05:06:15;5.87;;;4.00;;
3261;SDS011;1643;47.746;9.000;2023-02-01T05:08:41;6.97;;;4.23;;
3261;SDS011;1643;47.746;9.000;2023-02-01T05:11:07;9.83;;;5.27;;
3261;SDS011;1643;47.746;9.000;2023-02-01T05:13:53;9.77;;;4.70;;
3261;SDS011;1643;47.746;9.000;2023-02-01T05:16:19;7.23;;;4.60;;
3261;SDS011;1643;47.746;9.000;2023-02-01T05:18:45;5.50;;;4.80;;
3261;SDS011;1643;47.746;9.000;2023-02-01T05:21:11;9.97;;;4.93;;
3261;SDS011;1643;47.746;9.000;2023-02-01T05:23:37;7.27;;;5.10;;
3261;SDS011;1643;47.746;9.000;2023-02-01T05:26:24;6.73;;;4.80;;
3261;SDS011;1643;47.746;9.000;2023-02-01T05:28:50;8.43;;;5.43;;
3261;SDS011;1643;47.746;9.000;2023-02-01T05:31:16;6.97;;;5.27;;
3261;SDS011;1643;47.746;9.000;2023-02-01T05:33:42;5.37;;;4.17;;
3261;SDS011;1643;47.746;9.000;2023-02-01T05:36:08;9.67;;;5.90;;
3261;SDS011;1643;47.746;9.000;2023-02-01T05:38:34;7.33;;;4.60;;
3261;SDS011;1643;47.746;9.000;2023-02-01T05:41:00;5.90;;;4.60;;
3261;SDS011;1643;47.746;9.000;2023-02-01T05:43:26;7.83;;;5.33;;
3261;SDS011;1643;47.746;9.000;2023-02-01T05:45:52;7.17;;;4.70;;
3261;SDS011;1643;47.746;9.000;2023-02-01T05:48:18;6.63;;;4.93;;
3261;SDS011;1643;47.746;9.000;2023-02-01T05:50:44;8.93;;;5.67;;
3261;SDS011;1643;47.746;9.000;2023-02-01T05:53:10;9.40;;;5.43;;
3261;SDS011;1643;47.746;9.000;2023-02-01T05:55:37;9.40;;;5.60;;
3261;SDS011;1643;47.746;9.000;2023-02-01T05:58:03;5.33;;;4.00;;
3261;SDS011;1643;47.746;9.000;2023-02-01T06:00:29;9.97;;;5.53;;
3261;SDS011;1643;47.746;9.000;2023-02-01T06:02:55;8.93;;;5.27;;
3261;SDS011;1643;47.746;9.000;2023-02-01T06:05:21;8.70;;;5.43;;
3261;SDS011;1643;47.746;9.000;2023-02-01T06:07:47;6.63;;;5.07;;
3261;SDS011;1643;47.746;9.000;2023-02-01T06:10:15;7.47;;;5.50;;
3261;SDS011;1643;47.746;9.000;2023-02-01T06:12:41;20.60;;;10.53;;
3261;SDS011;1643;47.746;9.000;2023-02-01T06:15:07;10.57;;;6.63;;
3261;SDS011;1643;47.746;9.000;2023-02-01T06:17:34;6.07;;;5.40;;
3261;SDS011;1643;47.746;9.000;2023-02-01T06:20:00;7.40;;;5.80;;
3261;SDS011;1643;47.746;9.000;2023-02-01T06:22:26;9.10;;;5.37;;
3261;SDS011;1643;47.746;9.000;2023-02-01T06:24:52;11.20;;;5.27;;
3261;SDS011;1643;47.746;9.000;2023-02-01T06:27:18;7.30;;;5.40;;
3261;SDS011;1643;47.746;9.000;2023-02-01T06:29:43;8.00;;;5.40;;
3261;SDS011;1643;47.746;9.000;2023-02-01T06:32:10;7.43;;;4.80;;
3261;SDS011;1643;47.746;9.000;2023-02-01T06:34:36;7.70;;;5.03;;
3261;SDS011;1643;47.746;9.000;2023-02-01T06:37:04;8.00;;;5.43;;
3261;SDS011;1643;47.746;9.000;2023-02-01T06:39:30;6.70;;;5.33;;
3261;SDS011;1643;47.746;9.000;2023-02-01T06:41:56;7.20;;;4.73;;
3261;SDS011;1643;47.746;9.000;2023-02-01T06:44:22;6.60;;;4.50;;
3261;SDS011;1643;47.746;9.000;2023-02-01T06:46:48;7.37;;;5.10;;
3261;SDS011;1643;47.746;9.000;2023-02-01T06:49:14;7.07;;;4.90;;
3261;SDS011;1643;47.746;9.000;2023-02-01T06:51:40;8.47;;;5.50;;
3261;SDS011;1643;47.746;9.000;2023-02-01T06:54:06;7.73;;;4.63;;
3261;SDS011;1643;47.746;9.000;2023-02-01T06:56:32;7.67;;;4.33;;
3261;SDS011;1643;47.746;9.000;2023-02-01T06:58:58;13.30;;;5.47;;
3261;SDS011;1643;47.746;9.000;2023-02-01T07:01:25;8.97;;;5.20;;
3261;SDS011;1643;47.746;9.000;2023-02-01T07:03:51;5.47;;;4.10;;
3261;SDS011;1643;47.746;9.000;2023-02-01T07:06:17;7.30;;;4.13;;
3261;SDS011;1643;47.746;9.000;2023-02-01T07:08:43;4.83;;;4.10;;
3261;SDS011;1643;47.746;9.000;2023-02-01T07:11:10;6.10;;;3.73;;
3261;SDS011;1643;47.746;9.000;2023-02-01T07:13:37;5.50;;;4.30;;
3261;SDS011;1643;47.746;9.000;2023-02-01T07:16:04;5.83;;;4.43;;
3261;SDS011;1643;47.746;9.000;2023-02-01T07:18:30;6.03;;;4.70;;
3261;SDS011;1643;47.746;9.000;2023-02-01T07:20:57;6.50;;;4.70;;
3261;SDS011;1643;47.746;9.000;2023-02-01T07:23:25;9.20;;;6.13;;
3261;SDS011;1643;47.746;9.000;2023-02-01T07:25:54;8.83;;;5.80;;
3261;SDS011;1643;47.746;9.000;2023-02-01T07:28:20;7.73;;;5.07;;
3261;SDS011;1643;47.746;9.000;2023-02-01T07:30:46;6.70;;;4.93;;
3261;SDS011;1643;47.746;9.000;2023-02-01T07:33:17;6.27;;;5.30;;
3261;SDS011;1643;47.746;9.000;2023-02-01T07:35:43;7.77;;;5.87;;
3261;SDS011;1643;47.746;9.000;2023-02-01T07:38:09;10.53;;;5.60;;
3261;SDS011;1643;47.746;9.000;2023-02-01T07:40:35;7.43;;;5.57;;
3261;SDS011;1643;47.746;9.000;2023-02-01T07:43:01;7.60;;;5.77;;
3261;SDS011;1643;47.746;9.000;2023-02-01T07:45:27;11.10;;;4.97;;
3261;SDS011;1643;47.746;9.000;2023-02-01T07:47:53;6.43;;;4.80;;
3261;SDS011;1643;47.746;9.000;2023-02-01T07:50:19;7.90;;;4.87;;
3261;SDS011;1643;47.746;9.000;2023-02-01T07:52:45;8.10;;;5.30;;
3261;SDS011;1643;47.746;9.000;2023-02-01T07:55:11;7.00;;;5.70;;
3261;SDS011;1643;47.746;9.000;2023-02-01T07:57:37;8.10;;;6.03;;
3261;SDS011;1643;47.746;9.000;2023-02-01T08:00:03;7.13;;;5.37;;
3261;SDS011;1643;47.746;9.000;2023-02-01T08:02:48;10.00;;;5.77;;
3261;SDS011;1643;47.746;9.000;2023-02-01T08:05:14;10.17;;;5.80;;
3261;SDS011;1643;47.746;9.000;2023-02-01T08:07:40;6.90;;;5.20;;
3261;SDS011;1643;47.746;9.000;2023-02-01T08:10:06;9.53;;;5.50;;
3261;SDS011;1643;47.746;9.000;2023-02-01T08:12:35;8.27;;;5.97;;
3261;SDS011;1643;47.746;9.000;2023-02-01T08:15:02;7.17;;;4.70;;
3261;SDS011;1643;47.746;9.000;2023-02-01T08:17:28;7.17;;;5.37;;
3261;SDS011;1643;47.746;9.000;2023-02-01T08:19:55;8.13;;;5.40;;
3261;SDS011;1643;47.746;9.000;2023-02-01T08:22:21;7.80;;;5.57;;
3261;SDS011;1643;47.746;9.000;2023-02-01T08:24:47;8.57;;;5.63;;
3261;SDS011;1643;47.746;9.000;2023-02-01T08:27:14;7.73;;;5.97;;
3261;SDS011;1643;47.746;9.000;2023-02-01T08:29:40;7.67;;;4.93;;
3261;SDS011;1643;47.746;9.000;2023-02-01T08:32:06;6.83;;;4.83;;
3261;SDS011;1643;47.746;9.000;2023-02-01T08:34:32;7.70;;;5.53;;
3261;SDS011;1643;47.746;9.000;2023-02-01T08:36:58;7.40;;;5.47;;
3261;SDS011;1643;47.746;9.000;2023-02-01T08:39:25;6.73;;;4.97;;
3261;SDS011;1643;47.746;9.000;2023-02-01T08:41:51;7.00;;;5.60;;
3261;SDS011;1643;47.746;9.000;2023-02-01T08:44:36;9.47;;;5.67;;
3261;SDS011;1643;47.746;9.000;2023-02-01T08:47:02;6.63;;;5.70;;
3261;SDS011;1643;47.746;9.000;2023-02-01T08:49:28;6.77;;;5.73;;
3261;SDS011;1643;47.746;9.000;2023-02-01T08:51:55;7.07;;;5.70;;
3261;SDS011;1643;47.746;9.000;2023-02-01T08:54:21;8.33;;;6.07;;
3261;SDS011;1643;47.746;9.000;2023-02-01T08:56:47;7.80;;;5.80;;
3261;SDS011;1643;47.746;9.000;2023-02-01T08:59:13;9.33;;;6.10;;
3261;SDS011;1643;47.746;9.000;2023-02-01T09:01:39;9.63;;;4.80;;
3261;SDS011;1643;47.746;9.000;2023-02-01T09:04:05;8.63;;;6.10;;
3261;SDS011;1643;47.746;9.000;2023-02-01T09:06:31;9.07;;;5.83;;
3261;SDS011;1643;47.746;9.000;2023-02-01T09:08:57;12.27;;;6.77;;
3261;SDS011;1643;47.746;9.000;2023-02-01T09:11:23;7.80;;;6.10;;
3261;SDS011;1643;47.746;9.000;2023-02-01T09:13:50;9.43;;;6.20;;
3261;SDS011;1643;47.746;9.000;2023-02-01T09:16:16;8.40;;;6.07;;
3261;SDS011;1643;47.746;9.000;2023-02-01T09:18:42;11.93;;;7.07;;
3261;SDS011;1643;47.746;9.000;2023-02-01T09:21:08;10.77;;;6.83;;
3261;SDS011;1643;47.746;9.000;2023-02-01T09:23:34;11.73;;;7.90;;
3261;SDS011;1643;47.746;9.000;2023-02-01T09:26:01;13.30;;;7.70;;
3261;SDS011;1643;47.746;9.000;2023-02-01T09:28:27;11.73;;;7.97;;
3261;SDS011;1643;47.746;9.000;2023-02-01T09:30:57;18.03;;;7.43;;
3261;SDS011;1643;47.746;9.000;2023-02-01T09:33:23;10.57;;;7.27;;
3261;SDS011;1643;47.746;9.000;2023-02-01T09:35:54;12.37;;;7.73;;
3261;SDS011;1643;47.746;9.000;2023-02-01T09:38:21;8.90;;;6.90;;
3261;SDS011;1643;47.746;9.000;2023-02-01T09:40:47;15.60;;;7.50;;
3261;SDS011;1643;47.746;9.000;2023-02-01T09:46:10;10.73;;;7.27;;
3261;SDS011;1643;47.746;9.000;2023-02-01T09:48:41;10.13;;;7.37;;
3261;SDS011;1643;47.746;9.000;2023-02-01T09:51:16;9.03;;;6.87;;
3261;SDS011;1643;47.746;9.000;2023-02-01T09:53:47;12.33;;;7.90;;
3261;SDS011;1643;47.746;9.000;2023-02-01T09:56:20;10.63;;;7.20;;
3261;SDS011;1643;47.746;9.000;2023-02-01T09:58:47;10.67;;;7.40;;
3261;SDS011;1643;47.746;9.000;2023-02-01T10:01:18;10.40;;;7.03;;
3261;SDS011;1643;47.746;9.000;2023-02-01T10:03:45;8.73;;;6.43;;
3261;SDS011;1643;47.746;9.000;2023-02-01T10:16:50;11.23;;;7.70;;
3261;SDS011;1643;47.746;9.000;2023-02-01T10:21:58;11.80;;;5.80;;
3261;SDS011;1643;47.746;9.000;2023-02-01T10:24:33;10.87;;;7.07;;
3261;SDS011;1643;47.746;9.000;2023-02-01T10:27:12;9.13;;;6.37;;
3261;SDS011;1643;47.746;9.000;2023-02-01T10:29:39;8.67;;;5.90;;
3261;SDS011;1643;47.746;9.000;2023-02-01T10:32:13;8.23;;;5.60;;
3261;SDS011;1643;47.746;9.000;2023-02-01T10:34:39;7.53;;;5.50;;
3261;SDS011;1643;47.746;9.000;2023-02-01T10:37:18;8.93;;;6.03;;
3261;SDS011;1643;47.746;9.000;2023-02-01T10:39:47;9.87;;;5.80;;
3261;SDS011;1643;47.746;9.000;2023-02-01T10:42:14;8.40;;;5.50;;
3261;SDS011;1643;47.746;9.000;2023-02-01T10:44:43;7.50;;;4.97;;
3261;SDS011;1643;47.746;9.000;2023-02-01T10:47:12;7.63;;;4.57;;
3261;SDS011;1643;47.746;9.000;2023-02-01T10:49:41;7.93;;;5.37;;
3261;SDS011;1643;47.746;9.000;2023-02-01T10:52:12;6.60;;;4.63;;
3261;SDS011;1643;47.746;9.000;2023-02-01T10:54:40;5.83;;;4.47;;
3261;SDS011;1643;47.746;9.000;2023-02-01T10:57:07;7.67;;;5.23;;
3261;SDS011;1643;47.746;9.000;2023-02-01T10:59:34;6.80;;;5.10;;
3261;SDS011;1643;47.746;9.000;2023-02-01T11:02:02;13.90;;;5.57;;
3261;SDS011;1643;47.746;9.000;2023-02-01T11:04:33;7.87;;;4.73;;
3261;SDS011;1643;47.746;9.000;2023-02-01T11:07:15;9.43;;;5.67;;
3261;SDS011;1643;47.746;9.000;2023-02-01T11:09:42;11.63;;;5.90;;
3261;SDS011;1643;47.746;9.000;2023-02-01T11:15:22;6.50;;;4.00;;
3261;SDS011;1643;47.746;9.000;2023-02-01T11:17:49;8.40;;;5.10;;
3261;SDS011;1643;47.746;9.000;2023-02-01T11:20:33;11.97;;;4.50;;
3261;SDS011;1643;47.746;9.000;2023-02-01T11:23:01;10.47;;;4.87;;
3261;SDS011;1643;47.746;9.000;2023-02-01T11:25:28;4.53;;;3.93;;
3261;SDS011;1643;47.746;9.000;2023-02-01T11:27:54;5.40;;;4.37;;
3261;SDS011;1643;47.746;9.000;2023-02-01T11:30:40;5.80;;;4.00;;
3261;SDS011;1643;47.746;9.000;2023-02-01T11:33:09;5.23;;;3.70;;
3261;SDS011;1643;47.746;9.000;2023-02-01T11:35:38;5.90;;;4.03;;
3261;SDS011;1643;47.746;9.000;2023-02-01T11:38:10;12.27;;;5.50;;
3261;SDS011;1643;47.746;9.000;2023-02-01T11:40:37;7.13;;;4.50;;
3261;SDS011;1643;47.746;9.000;2023-02-01T11:45:32;9.13;;;4.73;;
3261;SDS011;1643;47.746;9.000;2023-02-01T11:47:59;7.27;;;4.10;;
3261;SDS011;1643;47.746;9.000;2023-02-01T12:03:57;5.63;;;4.07;;
3261;SDS011;1643;47.746;9.000;2023-02-01T12:21:41;6.43;;;4.70;;
3261;SDS011;1643;47.746;9.000;2023-02-01T12:27:17;9.37;;;4.77;;
3261;SDS011;1643;47.746;9.000;2023-02-01T12:35:11;13.80;;;4.60;;
3261;SDS011;1643;47.746;9.000;2023-02-01T12:43:00;9.43;;;4.63;;
3261;SDS011;1643;47.746;9.000;2023-02-01T12:45:36;7.77;;;4.13;;
3261;SDS011;1643;47.746;9.000;2023-02-01T12:50:43;8.33;;;4.30;;
3261;SDS011;1643;47.746;9.000;2023-02-01T12:53:19;8.47;;;4.13;;
3261;SDS011;1643;47.746;9.000;2023-02-01T12:55:55;6.70;;;3.13;;
3261;SDS011;1643;47.746;9.000;2023-02-01T12:58:24;3.97;;;2.80;;
3261;SDS011;1643;47.746;9.000;2023-02-01T13:01:02;3.77;;;2.70;;
3261;SDS011;1643;47.746;9.000;2023-02-01T13:03:40;6.93;;;2.53;;
3261;SDS011;1643;47.746;9.000;2023-02-01T13:06:09;6.40;;;3.00;;
3261;SDS011;1643;47.746;9.000;2023-02-01T13:11:04;9.20;;;2.87;;
3261;SDS011;1643;47.746;9.000;2023-02-01T13:16:26;3.60;;;2.80;;
3261;SDS011;1643;47.746;9.000;2023-02-01T13:18:52;4.83;;;2.97;;
3261;SDS011;1643;47.746;9.000;2023-02-01T13:21:26;5.27;;;2.70;;
3261;SDS011;1643;47.746;9.000;2023-02-01T13:23:53;9.87;;;2.53;;
3261;SDS011;1643;47.746;9.000;2023-02-01T13:26:19;4.63;;;2.80;;
3261;SDS011;1643;47.746;9.000;2023-02-01T13:34:16;10.60;;;4.03;;
3261;SDS011;1643;47.746;9.000;2023-02-01T13:37:04;6.40;;;3.53;;
3261;SDS011;1643;47.746;9.000;2023-02-01T13:42:27;10.33;;;3.57;;
3261;SDS011;1643;47.746;9.000;2023-02-01T13:44:58;9.33;;;3.07;;
3261;SDS011;1643;47.746;9.000;2023-02-01T13:47:29;4.93;;;2.93;;
3261;SDS011;1643;47.746;9.000;2023-02-01T13:50:41;6.20;;;2.83;;
3261;SDS011;1643;47.746;9.000;2023-02-01T13:52:43;6.10;;;3.00;;
3261;SDS011;1643;47.746;9.000;2023-02-01T13:57:39;10.30;;;3.30;;
3261;SDS011;1643;47.746;9.000;2023-02-01T14:03:11;6.43;;;3.23;;
3261;SDS011;1643;47.746;9.000;2023-02-01T14:13:34;8.90;;;3.30;;
3261;SDS011;1643;47.746;9.000;2023-02-01T14:23:41;4.73;;;3.00;;
3261;SDS011;1643;47.746;9.000;2023-02-01T14:26:09;7.60;;;3.20;;
3261;SDS011;1643;47.746;9.000;2023-02-01T14:28:36;6.97;;;3.13;;
3261;SDS011;1643;47.746;9.000;2023-02-01T14:31:13;10.17;;;3.37;;
3261;SDS011;1643;47.746;9.000;2023-02-01T14:33:41;4.93;;;2.97;;
3261;SDS011;1643;47.746;9.000;2023-02-01T14:36:09;11.43;;;3.17;;
3261;SDS011;1643;47.746;9.000;2023-02-01T14:38:37;4.93;;;2.80;;
3261;SDS011;1643;47.746;9.000;2023-02-01T14:49:12;7.33;;;3.10;;
3261;SDS011;1643;47.746;9.000;2023-02-01T14:51:38;3.00;;;2.70;;
3261;SDS011;1643;47.746;9.000;2023-02-01T14:54:04;7.43;;;3.00;;
3261;SDS011;1643;47.746;9.000;2023-02-01T14:56:33;7.13;;;3.53;;
3261;SDS011;1643;47.746;9.000;2023-02-01T14:59:00;9.73;;;2.77;;
3261;SDS011;1643;47.746;9.000;2023-02-01T15:01:30;4.20;;;3.07;;
3261;SDS011;1643;47.746;9.000;2023-02-01T15:06:33;7.23;;;2.90;;
3261;SDS011;1643;47.746;9.000;2023-02-01T15:09:04;8.23;;;2.50;;
3261;SDS011;1643;47.746;9.000;2023-02-01T15:11:33;6.83;;;2.67;;
3261;SDS011;1643;47.746;9.000;2023-02-01T15:14:18;9.50;;;3.57;;
3261;SDS011;1643;47.746;9.000;2023-02-01T15:16:44;5.43;;;2.70;;
3261;SDS011;1643;47.746;9.000;2023-02-01T15:19:18;9.77;;;2.93;;
3261;SDS011;1643;47.746;9.000;2023-02-01T15:21:46;13.93;;;3.40;;
3261;SDS011;1643;47.746;9.000;2023-02-01T15:24:13;14.60;;;3.33;;
3261;SDS011;1643;47.746;9.000;2023-02-01T15:26:40;10.63;;;4.40;;
3261;SDS011;1643;47.746;9.000;2023-02-01T15:29:09;8.83;;;2.80;;
3261;SDS011;1643;47.746;9.000;2023-02-01T15:31:40;11.10;;;3.50;;
3261;SDS011;1643;47.746;9.000;2023-02-01T15:34:07;8.83;;;3.30;;
3261;SDS011;1643;47.746;9.000;2023-02-01T15:36:33;18.43;;;3.60;;
3261;SDS011;1643;47.746;9.000;2023-02-01T15:39:12;8.30;;;3.43;;
3261;SDS011;1643;47.746;9.000;2023-02-01T15:41:44;7.83;;;3.10;;
3261;SDS011;1643;47.746;9.000;2023-02-01T15:44:57;8.60;;;3.50;;
3261;SDS011;1643;47.746;9.000;2023-02-01T15:46:58;8.63;;;3.10;;
3261;SDS011;1643;47.746;9.000;2023-02-01T15:49:26;7.67;;;2.83;;
3261;SDS011;1643;47.746;9.000;2023-02-01T15:51:52;8.83;;;3.67;;
3261;SDS011;1643;47.746;9.000;2023-02-01T15:54:20;11.97;;;3.40;;
3261;SDS011;1643;47.746;9.000;2023-02-01T15:56:49;11.97;;;3.13;;
3261;SDS011;1643;47.746;9.000;2023-02-01T15:59:21;10.30;;;4.03;;
3261;SDS011;1643;47.746;9.000;2023-02-01T16:01:47;6.70;;;3.20;;
3261;SDS011;1643;47.746;9.000;2023-02-01T16:04:16;7.00;;;4.47;;
3261;SDS011;1643;47.746;9.000;2023-02-01T16:06:52;6.83;;;3.20;;
3261;SDS011;1643;47.746;9.000;2023-02-01T16:09:20;11.63;;;3.00;;
3261;SDS011;1643;47.746;9.000;2023-02-01T16:11:48;5.20;;;2.73;;
3261;SDS011;1643;47.746;9.000;2023-02-01T16:14:14;5.33;;;3.13;;
3261;SDS011;1643;47.746;9.000;2023-02-01T16:16:40;7.90;;;2.77;;
3261;SDS011;1643;47.746;9.000;2023-02-01T16:19:06;11.47;;;3.03;;
3261;SDS011;1643;47.746;9.000;2023-02-01T16:21:32;5.90;;;2.83;;
3261;SDS011;1643;47.746;9.000;2023-02-01T16:23:58;12.50;;;3.63;;
3261;SDS011;1643;47.746;9.000;2023-02-01T16:26:28;8.20;;;2.97;;
3261;SDS011;1643;47.746;9.000;2023-02-01T16:28:55;13.67;;;3.33;;
3261;SDS011;1643;47.746;9.000;2023-02-01T16:31:22;3.97;;;2.80;;
3261;SDS011;1643;47.746;9.000;2023-02-01T16:33:50;7.83;;;3.07;;
3261;SDS011;1643;47.746;9.000;2023-02-01T16:36:16;11.87;;;3.27;;
3261;SDS011;1643;47.746;9.000;2023-02-01T16:38:43;3.70;;;3.03;;
3261;SDS011;1643;47.746;9.000;2023-02-01T16:41:11;12.37;;;3.10;;
3261;SDS011;1643;47.746;9.000;2023-02-01T16:43:38;7.73;;;2.83;;
3261;SDS011;1643;47.746;9.000;2023-02-01T16:46:04;11.30;;;3.30;;
3261;SDS011;1643;47.746;9.000;2023-02-01T16:48:35;9.53;;;3.10;;
3261;SDS011;1643;47.746;9.000;2023-02-01T16:51:03;11.77;;;3.40;;
3261;SDS011;1643;47.746;9.000;2023-02-01T16:53:32;13.60;;;3.20;;
3261;SDS011;1643;47.746;9.000;2023-02-01T16:55:58;8.77;;;3.30;;
3261;SDS011;1643;47.746;9.000;2023-02-01T16:58:25;7.37;;;3.10;;
3261;SDS011;1643;47.746;9.000;2023-02-01T17:00:51;12.63;;;3.80;;
3261;SDS011;1643;47.746;9.000;2023-02-01T17:03:17;6.20;;;2.80;;
3261;SDS011;1643;47.746;9.000;2023-02-01T17:05:47;13.43;;;3.30;;
3261;SDS011;1643;47.746;9.000;2023-02-01T17:08:36;14.73;;;3.47;;
3261;SDS011;1643;47.746;9.000;2023-02-01T17:11:01;7.80;;;2.97;;
3261;SDS011;1643;47.746;9.000;2023-02-01T17:13:28;7.23;;;2.70;;
3261;SDS011;1643;47.746;9.000;2023-02-01T17:16:11;5.73;;;3.03;;
3261;SDS011;1643;47.746;9.000;2023-02-01T17:18:38;7.00;;;2.80;;
3261;SDS011;1643;47.746;9.000;2023-02-01T17:21:04;7.17;;;3.03;;
3261;SDS011;1643;47.746;9.000;2023-02-01T17:23:31;6.07;;;3.23;;
3261;SDS011;1643;47.746;9.000;2023-02-01T17:25:57;6.20;;;3.37;;
3261;SDS011;1643;47.746;9.000;2023-02-01T17:28:24;12.50;;;3.90;;
3261;SDS011;1643;47.746;9.000;2023-02-01T17:30:50;7.43;;;2.67;;
3261;SDS011;1643;47.746;9.000;2023-02-01T17:33:17;8.17;;;3.10;;
3261;SDS011;1643;47.746;9.000;2023-02-01T17:35:44;6.60;;;2.50;;
3261;SDS011;1643;47.746;9.000;2023-02-01T17:38:12;14.40;;;3.57;;
3261;SDS011;1643;47.746;9.000;2023-02-01T17:40:38;12.10;;;3.10;;
3261;SDS011;1643;47.746;9.000;2023-02-01T17:43:04;8.47;;;3.17;;